Time;durP1;ratioP1;P1;durP2;ratioP2;P2;SDS_P1;SDS_P2;PMS_P1;PMS_P2;Temp;Humidity;BMP_temperature;BMP_pressure;BME280_temperature;BME280_humidity;BME280_pressure;Samples;Min_cycle;Max_cycle;Signal;HPM_P1;HPM_P2
2022/12/11 00:00:10;;;;;;;27.42;13.82;;;;;;;;;;5041799;28;20463;-78
2022/12/11 00:02:36;;;;;;;33.92;17.48;;;;;;;;;;5048358;28;20044;-78
2022/12/11 00:05:03;;;;;;;37.97;18.23;;;;;;;;;;5029925;28;20017;-79
2022/12/11 00:07:29;;;;;;;43.40;24.73;;;;;;;;;;5031953;28;20044;-79
2022/12/11 00:09:55;;;;;;;34.75;17.45;;;;;;;;;;5043354;28;20122;-79
2022/12/11 00:12:21;;;;;;;28.02;15.88;;;;;;;;;;5037642;28;20091;-78
2022/12/11 00:14:48;;;;;;;28.05;17.42;;;;;;;;;;5060917;28;20029;-79
2022/12/11 00:17:14;;;;;;;29.25;15.43;;;;;;;;;;5037777;28;20026;-78
2022/12/11 00:19:40;;;;;;;31.65;16.10;;;;;;;;;;5031000;28;20104;-79
2022/12/11 00:22:06;;;;;;;32.97;16.23;;;;;;;;;;5029281;28;20021;-78
2022/12/11 00:24:33;;;;;;;31.85;15.50;;;;;;;;;;5031979;28;20495;-78
2022/12/11 00:26:59;;;;;;;27.77;15.48;;;;;;;;;;5034012;28;20021;-78
2022/12/11 00:29:25;;;;;;;25.85;13.85;;;;;;;;;;5029263;28;20052;-78
2022/12/11 00:31:51;;;;;;;35.10;16.40;;;;;;;;;;5027513;28;20503;-77
2022/12/11 00:34:18;;;;;;;37.40;16.70;;;;;;;;;;5039369;28;20108;-77
2022/12/11 00:36:44;;;;;;;32.97;14.23;;;;;;;;;;5046323;28;20312;-77
2022/12/11 00:39:10;;;;;;;28.85;15.68;;;;;;;;;;5022506;28;20072;-78
2022/12/11 00:41:36;;;;;;;25.02;13.63;;;;;;;;;;5041100;28;20064;-81
2022/12/11 00:44:02;;;;;;;28.77;13.73;;;;;;;;;;5053780;28;20020;-78
2022/12/11 00:46:28;;;;;;;25.27;14.98;;;;;;;;;;5035275;28;20056;-77
2022/12/11 00:48:54;;;;;;;28.30;15.45;;;;;;;;;;5039220;28;20040;-79
2022/12/11 00:51:21;;;;;;;30.40;16.73;;;;;;;;;;5045682;28;20033;-78
2022/12/11 00:53:47;;;;;;;32.40;14.68;;;;;;;;;;5048103;28;20060;-79
2022/12/11 00:56:14;;;;;;;26.65;14.90;;;;;;;;;;5031817;28;20013;-77
2022/12/11 00:58:40;;;;;;;28.55;14.80;;;;;;;;;;5050739;28;20053;-78
2022/12/11 01:01:07;;;;;;;26.15;13.85;;;;;;;;;;5034168;28;20029;-77
2022/12/11 01:03:33;;;;;;;30.77;14.73;;;;;;;;;;5026460;28;20032;-78
2022/12/11 01:05:59;;;;;;;29.55;15.93;;;;;;;;;;5026662;28;20037;-78
2022/12/11 01:08:25;;;;;;;24.63;13.13;;;;;;;;;;5026771;28;20064;-78
2022/12/11 01:10:51;;;;;;;25.55;12.93;;;;;;;;;;5022090;28;20025;-78
2022/12/11 01:13:17;;;;;;;27.67;16.33;;;;;;;;;;5037287;28;20053;-78
2022/12/11 01:15:44;;;;;;;31.80;14.75;;;;;;;;;;5023055;28;20036;-77
2022/12/11 01:18:11;;;;;;;29.08;16.52;;;;;;;;;;5023611;28;20022;-77
2022/12/11 01:20:38;;;;;;;27.13;13.48;;;;;;;;;;5019706;28;20028;-77
2022/12/11 01:23:05;;;;;;;21.15;11.60;;;;;;;;;;5029742;28;20028;-78
2022/12/11 01:25:32;;;;;;;21.23;12.65;;;;;;;;;;5026328;28;20435;-78
2022/12/11 01:27:58;;;;;;;22.92;12.70;;;;;;;;;;5040791;28;20049;-77
2022/12/11 01:30:25;;;;;;;23.38;12.52;;;;;;;;;;5026884;28;20133;-78
2022/12/11 01:32:51;;;;;;;20.38;12.77;;;;;;;;;;5030698;28;20067;-77
2022/12/11 01:35:18;;;;;;;25.45;13.27;;;;;;;;;;5027285;28;20022;-78
2022/12/11 01:37:44;;;;;;;21.75;12.80;;;;;;;;;;5031999;28;20093;-79
2022/12/11 01:40:15;;;;;;;21.30;12.73;;;;;;;;;;5022483;28;20029;-78
2022/12/11 01:42:42;;;;;;;20.95;10.77;;;;;;;;;;5029228;28;20025;-79
2022/12/11 01:45:20;;;;;;;18.73;11.98;;;;;;;;;;5043539;28;20025;-78
2022/12/11 01:47:51;;;;;;;20.73;11.60;;;;;;;;;;5032041;28;20036;-79
2022/12/11 01:50:18;;;;;;;23.75;14.95;;;;;;;;;;5032279;28;20142;-78
2022/12/11 01:52:46;;;;;;;27.80;14.68;;;;;;;;;;5035245;28;20484;-78
2022/12/11 01:55:13;;;;;;;22.35;12.85;;;;;;;;;;5038785;28;20021;-79
2022/12/11 01:57:40;;;;;;;19.90;13.55;;;;;;;;;;5028957;28;20037;-78
2022/12/11 02:00:07;;;;;;;21.65;13.45;;;;;;;;;;5035726;28;20032;-79
2022/12/11 02:02:33;;;;;;;21.08;12.63;;;;;;;;;;5024099;28;20097;-78
2022/12/11 02:05:01;;;;;;;23.42;13.68;;;;;;;;;;5048689;28;20125;-79
2022/12/11 02:07:28;;;;;;;21.80;11.55;;;;;;;;;;5028908;28;20598;-78
2022/12/11 02:09:54;;;;;;;23.27;12.02;;;;;;;;;;5032239;28;20120;-79
2022/12/11 02:12:26;;;;;;;21.10;12.05;;;;;;;;;;5031499;28;20307;-78
2022/12/11 02:15:11;;;;;;;20.30;11.82;;;;;;;;;;5025541;28;20094;-78
2022/12/11 02:17:43;;;;;;;23.27;12.48;;;;;;;;;;5030010;28;20056;-78
2022/12/11 02:20:36;;;;;;;21.10;11.55;;;;;;;;;;5017565;28;20029;-78
2022/12/11 02:23:08;;;;;;;15.80;10.65;;;;;;;;;;5023530;28;20392;-78
2022/12/11 02:25:43;;;;;;;19.95;11.52;;;;;;;;;;5030152;28;20061;-78
2022/12/11 02:28:12;;;;;;;18.95;11.55;;;;;;;;;;5026517;28;20209;-79
2022/12/11 02:30:40;;;;;;;21.50;12.77;;;;;;;;;;5019301;28;20408;-81
2022/12/11 02:33:06;;;;;;;18.98;11.52;;;;;;;;;;5028521;28;20013;-78
2022/12/11 02:35:40;;;;;;;20.30;11.73;;;;;;;;;;5040267;28;20404;-79
2022/12/11 02:38:12;;;;;;;18.25;10.77;;;;;;;;;;5032338;28;20018;-78
2022/12/11 02:40:40;;;;;;;18.20;11.98;;;;;;;;;;5039255;28;20064;-77
2022/12/11 02:43:08;;;;;;;21.13;12.07;;;;;;;;;;5035461;28;20030;-78
2022/12/11 02:45:34;;;;;;;16.52;10.25;;;;;;;;;;5036509;28;20033;-78
2022/12/11 02:48:02;;;;;;;17.33;11.05;;;;;;;;;;5033384;28;20039;-78
2022/12/11 02:50:28;;;;;;;19.92;11.98;;;;;;;;;;5033770;28;20029;-79
2022/12/11 02:52:56;;;;;;;17.42;11.23;;;;;;;;;;5031324;28;20025;-80
2022/12/11 02:55:23;;;;;;;20.80;11.93;;;;;;;;;;5026569;28;20026;-78
2022/12/11 02:58:02;;;;;;;23.17;13.50;;;;;;;;;;5030491;28;20550;-82
2022/12/11 03:00:28;;;;;;;18.33;11.40;;;;;;;;;;5048676;28;20029;-79
2022/12/11 03:02:54;;;;;;;17.13;10.20;;;;;;;;;;5036226;28;20067;-78
2022/12/11 03:05:20;;;;;;;17.13;10.38;;;;;;;;;;5030953;28;20393;-79
2022/12/11 03:07:48;;;;;;;18.42;10.73;;;;;;;;;;5013706;28;20045;-78
2022/12/11 03:10:15;;;;;;;13.63;9.38;;;;;;;;;;5041888;28;20330;-77
2022/12/11 03:12:42;;;;;;;16.52;9.90;;;;;;;;;;5053916;28;20076;-77
2022/12/11 03:15:11;;;;;;;18.05;9.95;;;;;;;;;;5028539;28;20455;-77
2022/12/11 03:17:55;;;;;;;17.55;9.93;;;;;;;;;;5029829;28;20033;-78
2022/12/11 03:20:24;;;;;;;17.40;10.45;;;;;;;;;;5025920;28;20117;-78
2022/12/11 03:22:58;;;;;;;15.70;9.77;;;;;;;;;;5024111;28;20112;-78
2022/12/11 03:25:40;;;;;;;16.63;9.27;;;;;;;;;;5033602;28;20022;-78
2022/12/11 03:28:11;;;;;;;15.82;9.43;;;;;;;;;;5026368;28;20056;-78
2022/12/11 03:30:44;;;;;;;18.45;10.88;;;;;;;;;;5026895;28;20125;-77
2022/12/11 03:33:13;;;;;;;16.90;10.15;;;;;;;;;;5031429;28;20025;-79
2022/12/11 03:35:43;;;;;;;14.27;9.48;;;;;;;;;;5024139;28;20029;-79
2022/12/11 03:38:13;;;;;;;16.15;10.05;;;;;;;;;;5028993;28;20080;-78
2022/12/11 03:40:41;;;;;;;18.90;10.30;;;;;;;;;;5043473;28;20116;-77
2022/12/11 03:43:08;;;;;;;16.65;10.05;;;;;;;;;;5036832;28;20061;-77
2022/12/11 03:45:35;;;;;;;18.33;10.20;;;;;;;;;;5023431;28;20040;-77
2022/12/11 03:48:02;;;;;;;15.35;9.75;;;;;;;;;;5025211;28;20028;-77
2022/12/11 03:50:29;;;;;;;14.10;8.85;;;;;;;;;;5031820;28;20053;-78
2022/12/11 03:52:57;;;;;;;19.55;10.82;;;;;;;;;;5029350;28;20049;-77
2022/12/11 03:55:23;;;;;;;16.95;10.02;;;;;;;;;;5022772;28;20365;-77
2022/12/11 03:57:49;;;;;;;17.55;10.80;;;;;;;;;;5024703;28;20101;-78
2022/12/11 04:00:17;;;;;;;16.90;9.55;;;;;;;;;;5025053;28;20036;-78
2022/12/11 04:03:11;;;;;;;15.23;9.73;;;;;;;;;;5039936;28;20013;-77
2022/12/11 04:05:30;;;;;;;18.83;10.27;;;;;;;;;;5021454;28;20038;-79
2022/12/11 04:07:56;;;;;;;18.25;10.63;;;;;;;;;;5031948;28;20030;-78
2022/12/11 04:10:22;;;;;;;18.73;9.82;;;;;;;;;;5043988;28;20398;-78
2022/12/11 04:12:48;;;;;;;20.25;11.93;;;;;;;;;;5030908;28;20229;-79
2022/12/11 04:15:14;;;;;;;19.40;10.65;;;;;;;;;;5041232;28;20610;-78
2022/12/11 04:26:06;;;;;;;15.60;8.88;;;;;;;;;;5025430;28;20063;-78
2022/12/11 04:28:33;;;;;;;19.10;10.63;;;;;;;;;;5026299;28;20038;-78
2022/12/11 04:30:59;;;;;;;18.38;11.13;;;;;;;;;;5022594;28;20526;-78
2022/12/11 04:33:25;;;;;;;15.43;8.93;;;;;;;;;;5026825;28;20124;-78
2022/12/11 04:35:51;;;;;;;17.77;9.73;;;;;;;;;;5032589;28;20032;-78
2022/12/11 04:38:17;;;;;;;16.02;9.98;;;;;;;;;;5031137;28;20380;-78
2022/12/11 04:40:43;;;;;;;13.45;9.15;;;;;;;;;;5037980;28;20237;-78
2022/12/11 04:43:09;;;;;;;17.35;9.80;;;;;;;;;;5031421;28;20021;-78
2022/12/11 04:45:35;;;;;;;19.23;10.60;;;;;;;;;;5027285;28;20379;-78
2022/12/11 04:48:01;;;;;;;13.02;9.52;;;;;;;;;;5027650;28;20070;-77
2022/12/11 04:50:27;;;;;;;15.32;9.88;;;;;;;;;;5039800;28;20029;-79
2022/12/11 04:52:55;;;;;;;15.05;9.48;;;;;;;;;;5027167;28;20299;-78
2022/12/11 04:55:21;;;;;;;17.20;10.35;;;;;;;;;;5030166;28;20337;-78
2022/12/11 04:57:47;;;;;;;16.92;9.70;;;;;;;;;;5024032;28;20021;-78
2022/12/11 05:00:13;;;;;;;18.48;10.05;;;;;;;;;;5026460;28;20498;-78
2022/12/11 05:02:40;;;;;;;13.38;9.32;;;;;;;;;;5037886;28;20028;-78
2022/12/11 05:05:08;;;;;;;15.38;9.48;;;;;;;;;;5051925;28;20025;-78
2022/12/11 05:07:34;;;;;;;16.83;10.43;;;;;;;;;;5036653;28;20029;-77
2022/12/11 05:10:00;;;;;;;17.10;9.95;;;;;;;;;;5026851;28;20105;-76
2022/12/11 05:12:27;;;;;;;16.90;9.98;;;;;;;;;;5044389;28;20499;-77
2022/12/11 05:14:53;;;;;;;16.80;9.90;;;;;;;;;;5039714;28;20391;-78
2022/12/11 05:17:20;;;;;;;16.80;10.32;;;;;;;;;;5021388;28;20104;-78
2022/12/11 05:19:49;;;;;;;15.40;10.07;;;;;;;;;;5032503;28;20096;-77
2022/12/11 05:22:15;;;;;;;18.38;9.90;;;;;;;;;;5031509;28;20427;-78
2022/12/11 05:24:42;;;;;;;17.73;10.15;;;;;;;;;;5043381;28;20026;-78
2022/12/11 05:27:09;;;;;;;12.57;9.02;;;;;;;;;;5023390;28;20056;-78
2022/12/11 05:29:35;;;;;;;14.70;9.18;;;;;;;;;;5021988;28;20935;-77
2022/12/11 05:32:01;;;;;;;14.98;10.13;;;;;;;;;;5023869;28;20500;-78
2022/12/11 05:34:27;;;;;;;14.05;8.68;;;;;;;;;;5028476;28;20900;-77
2022/12/11 05:36:53;;;;;;;15.73;9.30;;;;;;;;;;5025722;28;20036;-78
2022/12/11 05:39:19;;;;;;;14.20;8.73;;;;;;;;;;5029975;28;20034;-79
2022/12/11 05:41:45;;;;;;;14.75;8.10;;;;;;;;;;5028245;28;20025;-77
2022/12/11 05:44:12;;;;;;;13.25;8.38;;;;;;;;;;5043178;28;20057;-78
2022/12/11 05:46:38;;;;;;;13.60;8.35;;;;;;;;;;5050899;28;20055;-77
2022/12/11 05:49:05;;;;;;;14.40;8.80;;;;;;;;;;5028584;28;20026;-77
2022/12/11 05:51:34;;;;;;;15.00;8.70;;;;;;;;;;5034206;28;20061;-78
2022/12/11 05:54:01;;;;;;;12.52;8.20;;;;;;;;;;5035611;28;20025;-79
2022/12/11 05:56:29;;;;;;;13.55;7.85;;;;;;;;;;5037009;28;20026;-77
2022/12/11 05:58:55;;;;;;;11.40;8.10;;;;;;;;;;5028327;28;20026;-79
2022/12/11 06:01:31;;;;;;;13.55;8.45;;;;;;;;;;5026121;28;20030;-79
2022/12/11 06:03:58;;;;;;;12.88;8.15;;;;;;;;;;5038847;28;20037;-77
2022/12/11 06:06:24;;;;;;;14.98;8.80;;;;;;;;;;5040879;28;20108;-79
2022/12/11 06:08:51;;;;;;;18.40;9.15;;;;;;;;;;5041369;28;20415;-78
2022/12/11 06:11:17;;;;;;;12.32;8.90;;;;;;;;;;5049304;28;20033;-78
2022/12/11 06:13:43;;;;;;;14.55;8.80;;;;;;;;;;5046442;28;20022;-79
2022/12/11 06:16:10;;;;;;;14.70;8.40;;;;;;;;;;5035901;28;20060;-77
2022/12/11 06:18:37;;;;;;;13.95;8.63;;;;;;;;;;5025081;28;20089;-78
2022/12/11 06:21:10;;;;;;;13.75;8.80;;;;;;;;;;5029089;28;20388;-77
2022/12/11 06:23:36;;;;;;;12.88;9.13;;;;;;;;;;5031687;28;20484;-77
2022/12/11 06:26:03;;;;;;;13.30;7.97;;;;;;;;;;5030076;28;20384;-78
2022/12/11 06:28:29;;;;;;;13.70;9.60;;;;;;;;;;5027095;28;20029;-77
2022/12/11 06:30:58;;;;;;;11.52;8.75;;;;;;;;;;5028882;28;20041;-77
2022/12/11 06:33:24;;;;;;;13.57;9.07;;;;;;;;;;5032269;28;20444;-77
2022/12/11 06:35:50;;;;;;;11.68;7.47;;;;;;;;;;5028515;28;20399;-79
2022/12/11 06:38:17;;;;;;;10.88;6.75;;;;;;;;;;5024227;28;20039;-76
2022/12/11 06:40:43;;;;;;;11.60;7.20;;;;;;;;;;5029657;28;20054;-78
2022/12/11 06:43:09;;;;;;;10.18;6.80;;;;;;;;;;5031948;28;20029;-77
2022/12/11 06:45:39;;;;;;;10.43;6.47;;;;;;;;;;5022733;28;20033;-77
2022/12/11 06:48:05;;;;;;;13.13;7.70;;;;;;;;;;5023282;28;20116;-77
2022/12/11 06:50:31;;;;;;;8.60;6.32;;;;;;;;;;5030482;28;20045;-78
2022/12/11 06:52:57;;;;;;;10.82;6.82;;;;;;;;;;5020552;28;20393;-78
2022/12/11 06:55:23;;;;;;;11.90;6.85;;;;;;;;;;5029526;28;20021;-78
2022/12/11 06:57:49;;;;;;;10.63;6.13;;;;;;;;;;5031272;28;20022;-77
2022/12/11 07:00:15;;;;;;;11.88;6.80;;;;;;;;;;5024003;28;20025;-78
2022/12/11 07:02:41;;;;;;;9.27;6.07;;;;;;;;;;5030771;28;20037;-77
2022/12/11 07:05:07;;;;;;;8.55;5.65;;;;;;;;;;5025567;28;20036;-78
2022/12/11 07:07:34;;;;;;;7.90;5.68;;;;;;;;;;5029657;28;20495;-79
2022/12/11 07:10:00;;;;;;;9.55;6.45;;;;;;;;;;5032165;28;20033;-79
2022/12/11 07:12:26;;;;;;;9.52;6.20;;;;;;;;;;5051920;28;20575;-78
2022/12/11 07:14:52;;;;;;;9.80;6.60;;;;;;;;;;5029789;28;20037;-78
2022/12/11 07:17:18;;;;;;;8.63;5.75;;;;;;;;;;5038685;28;20079;-77
2022/12/11 07:19:44;;;;;;;8.95;6.00;;;;;;;;;;5028214;28;20095;-78
2022/12/11 07:22:10;;;;;;;10.15;5.50;;;;;;;;;;5026963;28;20029;-78
2022/12/11 07:24:36;;;;;;;11.73;6.43;;;;;;;;;;5039222;28;20033;-79
2022/12/11 07:27:03;;;;;;;10.23;5.97;;;;;;;;;;5026297;28;20495;-78
2022/12/11 07:29:29;;;;;;;9.02;5.90;;;;;;;;;;5017119;28;20049;-77
2022/12/11 07:31:55;;;;;;;8.90;5.95;;;;;;;;;;5037040;28;20460;-78
2022/12/11 07:34:21;;;;;;;8.07;5.45;;;;;;;;;;5040082;28;20029;-78
2022/12/11 07:36:47;;;;;;;7.28;5.50;;;;;;;;;;5031875;28;20024;-79
2022/12/11 07:39:13;;;;;;;8.43;6.45;;;;;;;;;;5025756;28;20018;-77
2022/12/11 07:41:40;;;;;;;8.52;5.38;;;;;;;;;;5033627;28;20468;-77
2022/12/11 07:44:06;;;;;;;7.40;5.32;;;;;;;;;;5030278;28;20422;-77
2022/12/11 07:46:33;;;;;;;8.02;5.18;;;;;;;;;;5022975;28;20122;-77
2022/12/11 07:49:02;;;;;;;8.63;5.80;;;;;;;;;;5020530;28;20116;-77
2022/12/11 07:51:29;;;;;;;8.57;5.60;;;;;;;;;;5025409;28;20108;-78
2022/12/11 07:54:04;;;;;;;7.43;5.32;;;;;;;;;;5030832;28;20464;-77
2022/12/11 07:56:30;;;;;;;7.07;5.10;;;;;;;;;;5023134;28;20034;-77
2022/12/11 07:58:58;;;;;;;6.80;4.88;;;;;;;;;;5024385;28;20027;-77
2022/12/11 08:01:25;;;;;;;7.47;4.68;;;;;;;;;;5031360;28;20116;-77
2022/12/11 08:03:52;;;;;;;7.53;5.63;;;;;;;;;;5032081;28;20514;-77
2022/12/11 08:06:20;;;;;;;6.90;5.20;;;;;;;;;;5030991;28;20112;-77
2022/12/11 08:08:46;;;;;;;6.78;5.20;;;;;;;;;;5037044;28;20055;-77
2022/12/11 08:11:14;;;;;;;6.95;5.03;;;;;;;;;;5029529;28;20075;-75
2022/12/11 08:13:40;;;;;;;7.47;5.40;;;;;;;;;;5027170;28;20033;-76
2022/12/11 08:16:08;;;;;;;6.82;4.75;;;;;;;;;;5042041;28;20031;-77
2022/12/11 08:18:34;;;;;;;7.30;5.47;;;;;;;;;;5038449;28;20048;-76
2022/12/11 08:21:07;;;;;;;7.05;5.20;;;;;;;;;;5029072;28;20033;-75
2022/12/11 08:23:33;;;;;;;5.70;5.05;;;;;;;;;;5026101;28;20318;-76
2022/12/11 08:26:01;;;;;;;7.28;5.03;;;;;;;;;;5023778;28;20025;-77
2022/12/11 08:28:28;;;;;;;7.53;5.10;;;;;;;;;;5025471;28;20036;-76
2022/12/11 08:30:54;;;;;;;8.00;5.30;;;;;;;;;;5030046;28;20052;-78
2022/12/11 08:33:20;;;;;;;8.05;5.03;;;;;;;;;;5035058;28;20021;-77
2022/12/11 08:35:46;;;;;;;6.50;4.97;;;;;;;;;;5029996;28;20021;-76
2022/12/11 08:38:13;;;;;;;6.15;4.75;;;;;;;;;;5024146;28;20387;-77
2022/12/11 08:40:39;;;;;;;8.00;5.18;;;;;;;;;;5026670;28;20021;-77
2022/12/11 08:43:05;;;;;;;7.50;5.82;;;;;;;;;;5030891;28;20064;-76
2022/12/11 08:45:31;;;;;;;9.23;4.82;;;;;;;;;;5025214;28;20090;-76
2022/12/11 08:47:58;;;;;;;8.85;5.32;;;;;;;;;;5043611;28;20107;-77
2022/12/11 08:50:24;;;;;;;5.25;4.03;;;;;;;;;;5032826;28;20325;-79
2022/12/11 08:52:50;;;;;;;6.15;4.75;;;;;;;;;;5025883;28;20030;-77
2022/12/11 08:55:16;;;;;;;7.72;5.28;;;;;;;;;;5027275;28;20029;-77
2022/12/11 08:57:43;;;;;;;11.18;5.57;;;;;;;;;;5024274;28;20030;-77
2022/12/11 09:00:11;;;;;;;7.18;4.32;;;;;;;;;;5026617;28;20475;-77
2022/12/11 09:02:37;;;;;;;7.00;4.57;;;;;;;;;;5037011;28;20049;-77
2022/12/11 09:05:06;;;;;;;7.15;4.85;;;;;;;;;;5047159;28;20052;-77
2022/12/11 09:07:33;;;;;;;6.15;4.78;;;;;;;;;;5036211;28;20056;-77
2022/12/11 09:10:00;;;;;;;5.68;4.47;;;;;;;;;;5028326;28;20045;-78
2022/12/11 09:12:26;;;;;;;9.60;4.53;;;;;;;;;;5028100;28;20041;-78
2022/12/11 09:14:53;;;;;;;7.43;4.88;;;;;;;;;;5040942;28;20033;-77
2022/12/11 09:17:19;;;;;;;10.05;5.97;;;;;;;;;;5035370;28;20029;-77
2022/12/11 09:19:45;;;;;;;13.18;6.15;;;;;;;;;;5035079;28;20033;-77
2022/12/11 09:22:12;;;;;;;16.38;7.75;;;;;;;;;;5037020;28;20080;-77
2022/12/11 09:24:38;;;;;;;16.92;8.15;;;;;;;;;;5041775;28;20391;-77
2022/12/11 09:27:05;;;;;;;13.20;7.80;;;;;;;;;;5039985;28;20041;-79
2022/12/11 09:29:31;;;;;;;18.95;10.77;;;;;;;;;;5039144;28;20057;-77
2022/12/11 09:31:58;;;;;;;16.52;11.13;;;;;;;;;;5039041;28;20032;-77
2022/12/11 09:34:24;;;;;;;16.52;10.75;;;;;;;;;;5038259;28;20598;-77
2022/12/11 09:36:50;;;;;;;13.25;9.10;;;;;;;;;;5053964;28;20025;-78
2022/12/11 09:39:16;;;;;;;15.65;10.60;;;;;;;;;;5038779;28;20033;-77
2022/12/11 09:41:50;;;;;;;10.25;8.15;;;;;;;;;;5041206;28;20030;-78
2022/12/11 09:44:19;;;;;;;13.45;8.77;;;;;;;;;;5042956;28;20032;-78
2022/12/11 09:46:46;;;;;;;15.25;10.50;;;;;;;;;;5043728;28;20112;-79
2022/12/11 09:49:35;;;;;;;14.88;9.52;;;;;;;;;;5045387;28;20447;-79
2022/12/11 09:52:06;;;;;;;16.63;9.85;;;;;;;;;;5035690;28;20041;-76
2022/12/11 09:54:32;;;;;;;15.95;9.65;;;;;;;;;;5041473;28;20029;-79
2022/12/11 09:57:11;;;;;;;10.38;6.57;;;;;;;;;;5038290;28;20640;-80
2022/12/11 09:59:43;;;;;;;11.10;6.85;;;;;;;;;;5045060;28;20025;-79
2022/12/11 10:02:18;;;;;;;13.45;7.55;;;;;;;;;;5037058;28;20096;-77
2022/12/11 10:05:00;;;;;;;10.38;7.95;;;;;;;;;;5038501;28;20028;-77
2022/12/11 10:07:37;;;;;;;8.15;6.60;;;;;;;;;;5054404;28;20028;-77
2022/12/11 10:10:22;;;;;;;11.65;6.78;;;;;;;;;;5041623;28;20419;-78
2022/12/11 10:13:11;;;;;;;8.07;5.88;;;;;;;;;;5033213;28;20391;-78
2022/12/11 10:15:56;;;;;;;9.98;6.22;;;;;;;;;;5021569;28;20283;-79
2022/12/11 10:18:24;;;;;;;10.43;6.63;;;;;;;;;;5043825;28;20020;-77
2022/12/11 10:20:51;;;;;;;10.82;7.50;;;;;;;;;;5040206;28;20562;-78
2022/12/11 10:23:19;;;;;;;15.00;7.80;;;;;;;;;;5040404;28;20040;-79
2022/12/11 10:26:15;;;;;;;85.45;32.70;;;;;;;;;;5038578;28;20036;-77
2022/12/11 10:28:41;;;;;;;28.45;16.30;;;;;;;;;;5027431;28;20129;-79
2022/12/11 10:31:18;;;;;;;64.45;29.67;;;;;;;;;;5040129;28;20045;-78
2022/12/11 10:33:52;;;;;;;27.13;16.58;;;;;;;;;;5056810;28;20025;-79
2022/12/11 10:36:20;;;;;;;15.00;9.93;;;;;;;;;;5034647;28;20021;-78
2022/12/11 10:38:46;;;;;;;15.73;9.55;;;;;;;;;;5043212;28;20367;-78
2022/12/11 10:41:14;;;;;;;9.73;7.45;;;;;;;;;;5039491;28;20025;-78
2022/12/11 10:43:42;;;;;;;11.15;7.53;;;;;;;;;;5036266;28;20057;-76
2022/12/11 10:46:22;;;;;;;11.52;6.97;;;;;;;;;;5034860;28;20376;-79
2022/12/11 10:48:58;;;;;;;8.77;6.80;;;;;;;;;;5037033;28;20024;-80
2022/12/11 10:51:25;;;;;;;9.38;6.65;;;;;;;;;;5037524;28;20037;-79
2022/12/11 10:53:53;;;;;;;11.18;6.32;;;;;;;;;;5044980;28;20018;-80
2022/12/11 10:56:29;;;;;;;7.55;5.63;;;;;;;;;;5039454;28;20033;-78
2022/12/11 10:58:57;;;;;;;7.22;5.55;;;;;;;;;;5054289;28;20025;-79
2022/12/11 11:01:25;;;;;;;10.18;6.05;;;;;;;;;;5046698;28;20022;-78
2022/12/11 11:03:53;;;;;;;8.48;5.82;;;;;;;;;;5042926;28;20036;-79
2022/12/11 11:06:20;;;;;;;8.75;6.50;;;;;;;;;;5043751;28;20479;-79
2022/12/11 11:08:51;;;;;;;8.48;6.35;;;;;;;;;;5042402;28;20029;-79
2022/12/11 11:11:20;;;;;;;9.82;6.60;;;;;;;;;;5042475;28;20164;-80
2022/12/11 11:13:46;;;;;;;10.70;7.53;;;;;;;;;;5049977;28;20073;-82
2022/12/11 11:16:14;;;;;;;9.68;6.32;;;;;;;;;;5049468;28;20028;-79
2022/12/11 11:18:42;;;;;;;8.68;6.38;;;;;;;;;;5053911;28;20039;-79
2022/12/11 11:21:16;;;;;;;8.23;5.80;;;;;;;;;;5044804;28;20048;-80
2022/12/11 11:23:42;;;;;;;10.23;6.07;;;;;;;;;;5061823;28;20021;-80
2022/12/11 11:26:08;;;;;;;11.48;5.95;;;;;;;;;;5044396;28;20022;-79
2022/12/11 11:28:37;;;;;;;11.60;7.38;;;;;;;;;;5052946;28;20428;-78
2022/12/11 11:31:11;;;;;;;14.65;11.70;;;;;;;;;;5048513;28;20048;-79
2022/12/11 11:33:45;;;;;;;13.13;11.27;;;;;;;;;;5046001;28;20025;-79
2022/12/11 11:36:19;;;;;;;20.13;13.80;;;;;;;;;;5061753;28;20433;-80
2022/12/11 11:39:05;;;;;;;20.90;16.58;;;;;;;;;;5047544;28;20513;-79
2022/12/11 11:41:37;;;;;;;24.23;18.60;;;;;;;;;;5042635;28;20029;-79
2022/12/11 11:44:09;;;;;;;9.40;7.45;;;;;;;;;;5039021;28;20021;-79
2022/12/11 11:46:42;;;;;;;7.90;6.28;;;;;;;;;;5041847;28;20052;-80
2022/12/11 11:49:14;;;;;;;13.07;8.90;;;;;;;;;;5044473;28;20013;-79
2022/12/11 11:51:47;;;;;;;12.40;8.65;;;;;;;;;;5047082;28;20024;-79
2022/12/11 11:54:31;;;;;;;8.60;6.47;;;;;;;;;;5046342;28;20017;-79
2022/12/11 11:56:58;;;;;;;20.50;13.25;;;;;;;;;;5053951;28;20240;-78
2022/12/11 11:59:41;;;;;;;11.05;8.02;;;;;;;;;;5051796;28;20519;-80
2022/12/11 12:02:14;;;;;;;18.85;11.48;;;;;;;;;;5051895;28;20550;-78
2022/12/11 12:04:40;;;;;;;8.88;7.35;;;;;;;;;;5054089;28;20021;-83
2022/12/11 12:07:15;;;;;;;9.55;7.03;;;;;;;;;;5049559;28;20036;-78
2022/12/11 12:09:42;;;;;;;7.70;6.57;;;;;;;;;;5054027;28;20017;-79
2022/12/11 12:12:40;;;;;;;7.68;6.57;;;;;;;;;;5053940;28;20048;-80
2022/12/11 12:15:09;;;;;;;8.15;6.97;;;;;;;;;;5011365;28;20515;-79
2022/12/11 12:17:51;;;;;;;12.50;9.25;;;;;;;;;;5056940;28;20090;-80
2022/12/11 12:20:28;;;;;;;16.55;8.90;;;;;;;;;;5047763;28;20059;-78
2022/12/11 12:22:54;;;;;;;8.45;6.43;;;;;;;;;;5036536;28;20021;-81
2022/12/11 12:25:32;;;;;;;12.63;7.22;;;;;;;;;;5051277;28;20033;-79
2022/12/11 12:28:17;;;;;;;9.15;7.03;;;;;;;;;;5063590;28;20111;-79
2022/12/11 12:31:00;;;;;;;54.53;41.53;;;;;;;;;;5050913;28;20053;-78
2022/12/11 12:33:44;;;;;;;34.88;22.67;;;;;;;;;;5046115;28;20021;-81
2022/12/11 12:36:16;;;;;;;23.50;15.20;;;;;;;;;;5047810;28;20028;-79
2022/12/11 12:39:02;;;;;;;18.65;14.55;;;;;;;;;;5062267;28;20092;-79
2022/12/11 12:41:35;;;;;;;12.57;7.78;;;;;;;;;;5048874;28;20094;-79
2022/12/11 12:44:21;;;;;;;9.48;6.40;;;;;;;;;;5046333;28;20475;-79
2022/12/11 12:47:10;;;;;;;10.95;8.43;;;;;;;;;;5045443;28;20104;-80
2022/12/11 12:49:40;;;;;;;15.30;10.00;;;;;;;;;;5042006;28;20029;-79
2022/12/11 12:52:16;;;;;;;19.50;13.82;;;;;;;;;;5048831;28;20083;-80
2022/12/11 12:55:12;;;;;;;11.23;8.18;;;;;;;;;;5050003;28;20020;-79
2022/12/11 12:57:30;;;;;;;8.98;6.68;;;;;;;;;;5048411;28;20072;-80
2022/12/11 12:59:56;;;;;;;17.20;11.07;;;;;;;;;;5050543;28;20085;-79
2022/12/11 13:02:23;;;;;;;10.88;8.00;;;;;;;;;;5055193;28;20032;-79
2022/12/11 13:04:56;;;;;;;18.00;9.25;;;;;;;;;;5052493;28;20631;-80
2022/12/11 13:07:28;;;;;;;12.27;8.07;;;;;;;;;;5060173;28;20052;-80
2022/12/11 13:10:05;;;;;;;14.30;8.73;;;;;;;;;;5066012;28;20033;-80
2022/12/11 13:12:42;;;;;;;13.00;10.38;;;;;;;;;;5068959;28;20073;-79
2022/12/11 13:15:28;;;;;;;14.32;9.68;;;;;;;;;;5048186;28;20284;-80
2022/12/11 13:17:55;;;;;;;12.32;9.10;;;;;;;;;;5065474;28;20051;-79
2022/12/11 13:20:22;;;;;;;10.38;8.00;;;;;;;;;;5054126;28;20025;-78
2022/12/11 13:23:07;;;;;;;15.15;8.25;;;;;;;;;;5052897;28;20026;-78
2022/12/11 13:25:46;;;;;;;10.98;8.73;;;;;;;;;;5046344;28;20026;-79
2022/12/11 13:28:30;;;;;;;13.93;9.73;;;;;;;;;;5045356;28;20025;-80
2022/12/11 13:31:07;;;;;;;36.75;27.15;;;;;;;;;;5058558;28;20053;-79
2022/12/11 13:33:38;;;;;;;20.05;15.75;;;;;;;;;;5042990;28;20025;-79
2022/12/11 13:36:10;;;;;;;13.80;10.73;;;;;;;;;;5054051;28;20128;-80
2022/12/11 13:38:38;;;;;;;30.42;23.15;;;;;;;;;;5041009;28;20026;-79
2022/12/11 13:41:09;;;;;;;12.25;8.90;;;;;;;;;;5041033;28;20018;-78
2022/12/11 13:43:36;;;;;;;12.93;9.82;;;;;;;;;;5042281;28;20029;-79
2022/12/11 13:46:07;;;;;;;11.15;8.40;;;;;;;;;;5034217;28;20028;-79
2022/12/11 13:48:55;;;;;;;16.60;11.50;;;;;;;;;;5053334;28;20190;-80
2022/12/11 13:51:23;;;;;;;18.70;13.10;;;;;;;;;;5038844;28;20042;-78
2022/12/11 13:53:49;;;;;;;16.55;12.75;;;;;;;;;;5053707;28;20475;-80
2022/12/11 13:56:19;;;;;;;21.25;13.50;;;;;;;;;;5034228;28;20460;-83
2022/12/11 13:58:46;;;;;;;25.52;17.30;;;;;;;;;;5053389;28;20032;-78
2022/12/11 14:01:12;;;;;;;30.15;21.13;;;;;;;;;;5040601;28;20048;-79
2022/12/11 14:03:48;;;;;;;32.75;15.07;;;;;;;;;;5035272;28;20663;-80
2022/12/11 14:06:14;;;;;;;24.33;12.68;;;;;;;;;;5056919;28;20376;-79
2022/12/11 14:08:43;;;;;;;20.98;14.35;;;;;;;;;;5037348;28;20049;-79
2022/12/11 14:11:17;;;;;;;17.27;11.30;;;;;;;;;;5042873;28;20074;-81
2022/12/11 14:13:43;;;;;;;16.05;10.35;;;;;;;;;;5048463;28;20101;-77
2022/12/11 14:16:19;;;;;;;20.27;14.30;;;;;;;;;;5038733;28;20017;-78
2022/12/11 14:18:45;;;;;;;15.88;11.65;;;;;;;;;;5035100;28;20048;-79
2022/12/11 14:21:24;;;;;;;15.68;11.70;;;;;;;;;;5034325;28;20118;-78
2022/12/11 14:23:58;;;;;;;12.10;8.35;;;;;;;;;;5030961;28;20562;-78
2022/12/11 14:26:31;;;;;;;14.30;10.80;;;;;;;;;;5035954;28;20506;-78
2022/12/11 14:28:58;;;;;;;13.57;9.52;;;;;;;;;;5049901;28;20486;-79
2022/12/11 14:31:33;;;;;;;14.80;9.57;;;;;;;;;;5050107;28;20044;-78
2022/12/11 14:34:13;;;;;;;13.38;9.32;;;;;;;;;;5030809;28;20021;-77
2022/12/11 14:36:41;;;;;;;17.23;12.38;;;;;;;;;;5033650;28;20016;-80
2022/12/11 14:39:11;;;;;;;12.85;9.10;;;;;;;;;;5030191;28;20482;-77
2022/12/11 14:41:40;;;;;;;18.95;12.20;;;;;;;;;;5033673;28;20032;-77
2022/12/11 14:44:07;;;;;;;20.00;14.13;;;;;;;;;;5030107;28;20116;-76
2022/12/11 14:46:47;;;;;;;28.00;19.33;;;;;;;;;;5029160;28;20085;-82
2022/12/11 14:49:18;;;;;;;23.05;10.23;;;;;;;;;;5039156;28;20032;-76